sensor_id;sensor_type;location;lat;lon;timestamp;pressure;altitude;pressure_sealevel;temperature;humidity
61119;BME280;51448;51.660;5.824;2023-03-08T00:01:23;99969.19;;;0.07;100.00
61119;BME280;51448;51.660;5.824;2023-03-08T00:03:52;99967.47;;;0.08;100.00
61119;BME280;51448;51.660;5.824;2023-03-08T00:06:21;99973.50;;;0.07;100.00
61119;BME280;51448;51.660;5.824;2023-03-08T00:08:59;99972.66;;;0.06;100.00
61119;BME280;51448;51.660;5.824;2023-03-08T00:11:28;99976.09;;;0.04;100.00
61119;BME280;51448;51.660;5.824;2023-03-08T00:13:57;99976.09;;;0.02;100.00
61119;BME280;51448;51.660;5.824;2023-03-08T00:16:24;99979.53;;;0.03;100.00
61119;BME280;51448;51.660;5.824;2023-03-08T00:18:52;99977.81;;;0.03;100.00
61119;BME280;51448;51.660;5.824;2023-03-08T00:21:20;99969.19;;;0.01;100.00
61119;BME280;51448;51.660;5.824;2023-03-08T00:23:51;99965.75;;;0.02;100.00
61119;BME280;51448;51.660;5.824;2023-03-08T00:26:20;99966.59;;;-0.01;100.00
61119;BME280;51448;51.660;5.824;2023-03-08T00:28:48;99963.16;;;-0.03;100.00
61119;BME280;51448;51.660;5.824;2023-03-08T00:31:15;99967.47;;;-0.02;100.00
61119;BME280;51448;51.660;5.824;2023-03-08T00:33:44;99966.63;;;-0.02;100.00
61119;BME280;51448;51.660;5.824;2023-03-08T00:38:44;99963.16;;;-0.03;100.00
61119;BME280;51448;51.660;5.824;2023-03-08T00:41:13;99961.44;;;-0.04;100.00
61119;BME280;51448;51.660;5.824;2023-03-08T00:43:41;99959.72;;;-0.06;100.00
61119;BME280;51448;51.660;5.824;2023-03-08T00:46:10;99961.41;;;-0.07;100.00
61119;BME280;51448;51.660;5.824;2023-03-08T00:48:39;99958.84;;;-0.08;100.00
61119;BME280;51448;51.660;5.824;2023-03-08T00:51:11;99960.56;;;-0.06;100.00
61119;BME280;51448;51.660;5.824;2023-03-08T00:53:41;99956.25;;;-0.10;100.00
61119;BME280;51448;51.660;5.824;2023-03-08T00:56:08;99959.69;;;-0.11;100.00
61119;BME280;51448;51.660;5.824;2023-03-08T00:58:37;99953.66;;;-0.11;100.00
61119;BME280;51448;51.660;5.824;2023-03-08T01:01:08;99960.56;;;-0.12;100.00
61119;BME280;51448;51.660;5.824;2023-03-08T01:03:46;99949.38;;;-0.14;100.00
61119;BME280;51448;51.660;5.824;2023-03-08T01:06:14;99949.38;;;-0.14;100.00
61119;BME280;51448;51.660;5.824;2023-03-08T01:08:42;99943.34;;;-0.14;100.00
61119;BME280;51448;51.660;5.824;2023-03-08T01:11:19;99951.97;;;-0.12;100.00
61119;BME280;51448;51.660;5.824;2023-03-08T01:13:50;99943.31;;;-0.13;100.00
61119;BME280;51448;51.660;5.824;2023-03-08T01:16:26;99948.50;;;-0.13;100.00
61119;BME280;51448;51.660;5.824;2023-03-08T01:18:59;99936.44;;;-0.14;100.00
61119;BME280;51448;51.660;5.824;2023-03-08T01:21:29;99942.47;;;-0.12;100.00
61119;BME280;51448;51.660;5.824;2023-03-08T01:23:58;99937.31;;;-0.12;100.00
61119;BME280;51448;51.660;5.824;2023-03-08T01:26:27;99932.13;;;-0.12;100.00
61119;BME280;51448;51.660;5.824;2023-03-08T01:28:56;99920.91;;;-0.11;100.00
61119;BME280;51448;51.660;5.824;2023-03-08T01:31:26;99922.66;;;-0.08;100.00
61119;BME280;51448;51.660;5.824;2023-03-08T01:33:57;99904.56;;;-0.10;100.00
61119;BME280;51448;51.660;5.824;2023-03-08T01:36:26;99908.00;;;-0.08;100.00
61119;BME280;51448;51.660;5.824;2023-03-08T01:38:54;99911.44;;;-0.07;100.00
61119;BME280;51448;51.660;5.824;2023-03-08T01:41:29;99904.53;;;-0.07;100.00
61119;BME280;51448;51.660;5.824;2023-03-08T01:43:58;99892.50;;;-0.08;100.00
61119;BME280;51448;51.660;5.824;2023-03-08T01:46:30;99895.94;;;-0.06;100.00
61119;BME280;51448;51.660;5.824;2023-03-08T01:49:32;99890.78;;;-0.06;100.00
61119;BME280;51448;51.660;5.824;2023-03-08T01:52:15;99884.72;;;-0.05;100.00
61119;BME280;51448;51.660;5.824;2023-03-08T01:54:50;99877.84;;;-0.06;100.00
61119;BME280;51448;51.660;5.824;2023-03-08T01:57:31;99885.59;;;-0.03;100.00
61119;BME280;51448;51.660;5.824;2023-03-08T02:00:07;99883.88;;;-0.04;100.00
61119;BME280;51448;51.660;5.824;2023-03-08T02:02:47;99871.81;;;-0.02;100.00
61119;BME280;51448;51.660;5.824;2023-03-08T02:05:18;99867.50;;;-0.03;100.00
61119;BME280;51448;51.660;5.824;2023-03-08T02:07:50;99864.91;;;-0.03;100.00
61119;BME280;51448;51.660;5.824;2023-03-08T02:10:19;99864.06;;;0.00;100.00
61119;BME280;51448;51.660;5.824;2023-03-08T02:12:47;99868.34;;;-0.01;100.00
61119;BME280;51448;51.660;5.824;2023-03-08T02:15:17;99866.66;;;0.00;100.00
61119;BME280;51448;51.660;5.824;2023-03-08T02:17:51;99857.16;;;0.01;100.00
61119;BME280;51448;51.660;5.824;2023-03-08T02:20:24;99860.63;;;0.03;100.00
61119;BME280;51448;51.660;5.824;2023-03-08T02:23:19;99851.97;;;0.04;100.00
61119;BME280;51448;51.660;5.824;2023-03-08T02:26:00;99847.69;;;0.03;100.00
61119;BME280;51448;51.660;5.824;2023-03-08T02:28:31;99840.78;;;0.02;100.00
61119;BME280;51448;51.660;5.824;2023-03-08T02:31:00;99834.75;;;0.03;100.00
61119;BME280;51448;51.660;5.824;2023-03-08T02:33:28;99835.63;;;0.05;100.00
61119;BME280;51448;51.660;5.824;2023-03-08T02:35:57;99833.03;;;0.06;100.00
61119;BME280;51448;51.660;5.824;2023-03-08T02:38:28;99835.59;;;0.08;100.00
61119;BME280;51448;51.660;5.824;2023-03-08T02:40:58;99820.94;;;0.10;100.00
61119;BME280;51448;51.660;5.824;2023-03-08T02:43:26;99826.13;;;0.11;100.00
61119;BME280;51448;51.660;5.824;2023-03-08T02:45:54;99826.13;;;0.14;100.00
61119;BME280;51448;51.660;5.824;2023-03-08T02:48:21;99829.56;;;0.16;100.00
61119;BME280;51448;51.660;5.824;2023-03-08T02:50:49;99824.38;;;0.18;100.00
61119;BME280;51448;51.660;5.824;2023-03-08T02:53:17;99818.38;;;0.21;100.00
61119;BME280;51448;51.660;5.824;2023-03-08T02:55:44;99803.69;;;0.21;100.00
61119;BME280;51448;51.660;5.824;2023-03-08T02:58:13;99806.25;;;0.24;100.00
61119;BME280;51448;51.660;5.824;2023-03-08T03:00:40;99800.25;;;0.27;100.00
61119;BME280;51448;51.660;5.824;2023-03-08T03:03:08;99798.53;;;0.29;100.00
61119;BME280;51448;51.660;5.824;2023-03-08T03:05:42;99809.69;;;0.32;100.00
61119;BME280;51448;51.660;5.824;2023-03-08T03:08:15;99809.69;;;0.35;100.00
61119;BME280;51448;51.660;5.824;2023-03-08T03:10:43;99807.97;;;0.37;100.00
61119;BME280;51448;51.660;5.824;2023-03-08T03:13:13;99810.56;;;0.39;100.00
61119;BME280;51448;51.660;5.824;2023-03-08T03:15:41;99813.13;;;0.42;100.00
61119;BME280;51448;51.660;5.824;2023-03-08T03:18:09;99809.66;;;0.45;100.00
61119;BME280;51448;51.660;5.824;2023-03-08T03:20:37;99808.81;;;0.46;100.00
61119;BME280;51448;51.660;5.824;2023-03-08T03:23:04;99804.47;;;0.48;100.00
61119;BME280;51448;51.660;5.824;2023-03-08T03:25:42;99797.56;;;0.48;100.00
61119;BME280;51448;51.660;5.824;2023-03-08T03:28:14;99795.84;;;0.52;100.00
61119;BME280;51448;51.660;5.824;2023-03-08T03:30:42;99788.94;;;0.54;100.00
61119;BME280;51448;51.660;5.824;2023-03-08T03:33:12;99772.53;;;0.55;100.00
61119;BME280;51448;51.660;5.824;2023-03-08T03:35:39;99780.28;;;0.58;100.00
61119;BME280;51448;51.660;5.824;2023-03-08T03:38:08;99784.59;;;0.59;100.00
61119;BME280;51448;51.660;5.824;2023-03-08T03:40:36;99776.81;;;0.62;100.00
61119;BME280;51448;51.660;5.824;2023-03-08T03:43:04;99770.78;;;0.63;100.00
61119;BME280;51448;51.660;5.824;2023-03-08T03:45:33;99758.72;;;0.64;100.00
61119;BME280;51448;51.660;5.824;2023-03-08T03:48:01;99747.47;;;0.63;100.00
61119;BME280;51448;51.660;5.824;2023-03-08T03:50:30;99740.56;;;0.65;100.00
61119;BME280;51448;51.660;5.824;2023-03-08T03:53:03;99734.53;;;0.63;100.00
61119;BME280;51448;51.660;5.824;2023-03-08T03:55:31;99728.50;;;0.63;100.00
61119;BME280;51448;51.660;5.824;2023-03-08T03:58:01;99741.44;;;0.64;100.00
61119;BME280;51448;51.660;5.824;2023-03-08T04:00:30;99720.75;;;0.63;100.00
61119;BME280;51448;51.660;5.824;2023-03-08T04:03:09;99730.25;;;0.62;100.00
61119;BME280;51448;51.660;5.824;2023-03-08T04:05:38;99739.72;;;0.63;100.00
61119;BME280;51448;51.660;5.824;2023-03-08T04:08:07;99735.44;;;0.64;100.00
61119;BME280;51448;51.660;5.824;2023-03-08T04:10:37;99726.78;;;0.63;100.00
61119;BME280;51448;51.660;5.824;2023-03-08T04:13:06;99723.34;;;0.63;100.00
61119;BME280;51448;51.660;5.824;2023-03-08T04:15:33;99731.94;;;0.63;100.00
61119;BME280;51448;51.660;5.824;2023-03-08T04:18:05;99726.78;;;0.63;100.00
61119;BME280;51448;51.660;5.824;2023-03-08T04:20:34;99721.59;;;0.65;100.00
61119;BME280;51448;51.660;5.824;2023-03-08T04:23:03;99712.97;;;0.64;100.00
61119;BME280;51448;51.660;5.824;2023-03-08T04:25:37;99699.16;;;0.65;100.00
61119;BME280;51448;51.660;5.824;2023-03-08T04:28:06;99700.91;;;0.65;100.00
61119;BME280;51448;51.660;5.824;2023-03-08T04:30:34;99692.28;;;0.64;100.00
61119;BME280;51448;51.660;5.824;2023-03-08T04:33:03;99691.41;;;0.65;100.00
61119;BME280;51448;51.660;5.824;2023-03-08T04:35:40;99691.44;;;0.64;100.00
61119;BME280;51448;51.660;5.824;2023-03-08T04:38:07;99690.53;;;0.66;100.00
61119;BME280;51448;51.660;5.824;2023-03-08T04:40:36;99682.78;;;0.66;100.00
61119;BME280;51448;51.660;5.824;2023-03-08T04:43:25;99687.97;;;0.66;100.00
61119;BME280;51448;51.660;5.824;2023-03-08T04:45:53;99683.63;;;0.68;100.00
61119;BME280;51448;51.660;5.824;2023-03-08T04:48:22;99678.47;;;0.68;100.00
61119;BME280;51448;51.660;5.824;2023-03-08T04:50:54;99671.53;;;0.69;100.00
61119;BME280;51448;51.660;5.824;2023-03-08T04:53:25;99665.50;;;0.67;100.00
61119;BME280;51448;51.660;5.824;2023-03-08T04:55:54;99662.97;;;0.64;100.00
61119;BME280;51448;51.660;5.824;2023-03-08T04:58:23;99663.84;;;0.59;100.00
61119;BME280;51448;51.660;5.824;2023-03-08T05:00:51;99662.97;;;0.59;100.00
61119;BME280;51448;51.660;5.824;2023-03-08T05:03:19;99650.91;;;0.55;100.00
61119;BME280;51448;51.660;5.824;2023-03-08T05:05:50;99649.22;;;0.54;100.00
61119;BME280;51448;51.660;5.824;2023-03-08T05:08:21;99647.47;;;0.53;100.00
61119;BME280;51448;51.660;5.824;2023-03-08T05:10:55;99635.44;;;0.53;100.00
61119;BME280;51448;51.660;5.824;2023-03-08T05:13:32;99629.38;;;0.53;100.00
61119;BME280;51448;51.660;5.824;2023-03-08T05:16:03;99623.34;;;0.54;100.00
61119;BME280;51448;51.660;5.824;2023-03-08T05:18:33;99619.03;;;0.53;100.00
61119;BME280;51448;51.660;5.824;2023-03-08T05:21:04;99622.47;;;0.55;100.00
61119;BME280;51448;51.660;5.824;2023-03-08T05:23:34;99619.88;;;0.55;100.00
61119;BME280;51448;51.660;5.824;2023-03-08T05:26:03;99601.75;;;0.58;100.00
61119;BME280;51448;51.660;5.824;2023-03-08T05:28:34;99604.31;;;0.61;100.00
61119;BME280;51448;51.660;5.824;2023-03-08T05:31:09;99603.44;;;0.64;100.00
61119;BME280;51448;51.660;5.824;2023-03-08T05:33:42;99596.53;;;0.64;100.00
61119;BME280;51448;51.660;5.824;2023-03-08T05:36:16;99593.94;;;0.66;100.00
61119;BME280;51448;51.660;5.824;2023-03-08T05:38:45;99587.88;;;0.68;100.00
61119;BME280;51448;51.660;5.824;2023-03-08T05:41:14;99574.94;;;0.68;100.00
61119;BME280;51448;51.660;5.824;2023-03-08T05:43:46;99575.78;;;0.69;100.00
61119;BME280;51448;51.660;5.824;2023-03-08T05:46:18;99572.34;;;0.70;100.00
61119;BME280;51448;51.660;5.824;2023-03-08T05:48:47;99555.94;;;0.69;100.00
61119;BME280;51448;51.660;5.824;2023-03-08T05:51:17;99562.84;;;0.70;100.00
61119;BME280;51448;51.660;5.824;2023-03-08T05:53:45;99553.34;;;0.69;100.00
61119;BME280;51448;51.660;5.824;2023-03-08T05:56:17;99560.25;;;0.70;100.00
61119;BME280;51448;51.660;5.824;2023-03-08T05:58:56;99546.47;;;0.70;100.00
61119;BME280;51448;51.660;5.824;2023-03-08T06:01:27;99538.66;;;0.71;100.00
61119;BME280;51448;51.660;5.824;2023-03-08T06:04:02;99538.66;;;0.71;100.00
61119;BME280;51448;51.660;5.824;2023-03-08T06:06:33;99529.19;;;0.72;100.00
61119;BME280;51448;51.660;5.824;2023-03-08T06:09:03;99525.72;;;0.73;100.00
61119;BME280;51448;51.660;5.824;2023-03-08T06:11:33;99521.41;;;0.73;100.00
61119;BME280;51448;51.660;5.824;2023-03-08T06:14:02;99520.53;;;0.74;100.00
61119;BME280;51448;51.660;5.824;2023-03-08T06:16:31;99516.22;;;0.73;100.00
61119;BME280;51448;51.660;5.824;2023-03-08T06:19:00;99508.44;;;0.76;100.00
61119;BME280;51448;51.660;5.824;2023-03-08T06:21:30;99501.53;;;0.75;100.00
61119;BME280;51448;51.660;5.824;2023-03-08T06:24:03;99509.28;;;0.75;100.00
61119;BME280;51448;51.660;5.824;2023-03-08T06:26:32;99507.59;;;0.76;100.00
61119;BME280;51448;51.660;5.824;2023-03-08T06:29:00;99505.84;;;0.76;100.00
61119;BME280;51448;51.660;5.824;2023-03-08T06:31:30;99505.84;;;0.76;100.00
61119;BME280;51448;51.660;5.824;2023-03-08T06:33:57;99505.84;;;0.76;100.00
61119;BME280;51448;51.660;5.824;2023-03-08T06:36:27;99508.44;;;0.76;100.00
61119;BME280;51448;51.660;5.824;2023-03-08T06:38:54;99510.19;;;0.76;100.00
61119;BME280;51448;51.660;5.824;2023-03-08T06:41:23;99504.13;;;0.75;100.00
61119;BME280;51448;51.660;5.824;2023-03-08T06:43:55;99503.25;;;0.76;100.00
61119;BME280;51448;51.660;5.824;2023-03-08T06:46:23;99500.69;;;0.76;100.00
61119;BME280;51448;51.660;5.824;2023-03-08T06:48:51;99499.81;;;0.76;100.00
61119;BME280;51448;51.660;5.824;2023-03-08T06:51:20;99499.84;;;0.74;100.00
61119;BME280;51448;51.660;5.824;2023-03-08T06:53:49;99497.25;;;0.74;100.00
61119;BME280;51448;51.660;5.824;2023-03-08T06:56:20;99499.00;;;0.72;100.00
61119;BME280;51448;51.660;5.824;2023-03-08T06:58:48;99488.63;;;0.74;100.00
61119;BME280;51448;51.660;5.824;2023-03-08T07:01:16;99499.84;;;0.74;100.00
61119;BME280;51448;51.660;5.824;2023-03-08T07:03:44;99491.22;;;0.74;100.00
61119;BME280;51448;51.660;5.824;2023-03-08T07:06:14;99500.69;;;0.73;100.00
61119;BME280;51448;51.660;5.824;2023-03-08T07:08:42;99496.41;;;0.71;100.00
61119;BME280;51448;51.660;5.824;2023-03-08T07:11:10;99495.56;;;0.70;100.00
61119;BME280;51448;51.660;5.824;2023-03-08T07:13:37;99492.13;;;0.68;100.00
61119;BME280;51448;51.660;5.824;2023-03-08T07:16:07;99496.47;;;0.66;100.00
61119;BME280;51448;51.660;5.824;2023-03-08T07:18:36;99496.47;;;0.65;100.00
61119;BME280;51448;51.660;5.824;2023-03-08T07:21:05;99504.22;;;0.65;100.00
61119;BME280;51448;51.660;5.824;2023-03-08T07:23:33;99499.94;;;0.62;100.00
61119;BME280;51448;51.660;5.824;2023-03-08T07:26:09;99493.88;;;0.63;100.00
61119;BME280;51448;51.660;5.824;2023-03-08T07:28:37;99497.38;;;0.59;100.00
61119;BME280;51448;51.660;5.824;2023-03-08T07:31:05;99481.84;;;0.59;100.00
61119;BME280;51448;51.660;5.824;2023-03-08T07:33:32;99479.25;;;0.59;100.00
61119;BME280;51448;51.660;5.824;2023-03-08T07:36:00;99480.09;;;0.61;100.00
61119;BME280;51448;51.660;5.824;2023-03-08T07:38:28;99471.50;;;0.60;100.00
61119;BME280;51448;51.660;5.824;2023-03-08T07:40:56;99468.00;;;0.63;100.00
61119;BME280;51448;51.660;5.824;2023-03-08T07:43:24;99468.91;;;0.62;100.00
61119;BME280;51448;51.660;5.824;2023-03-08T07:46:01;99464.56;;;0.63;100.00
61119;BME280;51448;51.660;5.824;2023-03-08T07:48:30;99467.16;;;0.61;100.00
61119;BME280;51448;51.660;5.824;2023-03-08T07:51:05;99455.97;;;0.62;100.00
61119;BME280;51448;51.660;5.824;2023-03-08T07:53:36;99470.59;;;0.65;100.00
61119;BME280;51448;51.660;5.824;2023-03-08T07:56:05;99457.66;;;0.65;100.00
61119;BME280;51448;51.660;5.824;2023-03-08T07:58:33;99450.72;;;0.65;100.00
61119;BME280;51448;51.660;5.824;2023-03-08T08:01:00;99458.50;;;0.65;100.00
61119;BME280;51448;51.660;5.824;2023-03-08T08:03:28;99449.00;;;0.67;100.00
61119;BME280;51448;51.660;5.824;2023-03-08T08:06:00;99446.41;;;0.69;100.00
61119;BME280;51448;51.660;5.824;2023-03-08T08:08:30;99454.16;;;0.70;100.00
61119;BME280;51448;51.660;5.824;2023-03-08T08:10:58;99448.13;;;0.70;100.00
61119;BME280;51448;51.660;5.824;2023-03-08T08:13:25;99440.38;;;0.70;100.00
61119;BME280;51448;51.660;5.824;2023-03-08T08:16:00;99442.94;;;0.70;100.00
61119;BME280;51448;51.660;5.824;2023-03-08T08:18:29;99431.75;;;0.68;100.00
61119;BME280;51448;51.660;5.824;2023-03-08T08:21:08;99437.78;;;0.68;100.00
61119;BME280;51448;51.660;5.824;2023-03-08T08:23:38;99434.34;;;0.66;100.00
61119;BME280;51448;51.660;5.824;2023-03-08T08:26:14;99430.88;;;0.67;100.00
61119;BME280;51448;51.660;5.824;2023-03-08T08:28:45;99431.75;;;0.66;100.00
61119;BME280;51448;51.660;5.824;2023-03-08T08:31:18;99428.28;;;0.67;100.00
61119;BME280;51448;51.660;5.824;2023-03-08T08:33:48;99422.25;;;0.67;100.00
61119;BME280;51448;51.660;5.824;2023-03-08T08:36:17;99418.81;;;0.66;100.00
61119;BME280;51448;51.660;5.824;2023-03-08T08:38:46;99414.50;;;0.65;100.00
61119;BME280;51448;51.660;5.824;2023-03-08T08:41:16;99411.06;;;0.66;100.00
61119;BME280;51448;51.660;5.824;2023-03-08T08:43:46;99399.88;;;0.63;100.00
61119;BME280;51448;51.660;5.824;2023-03-08T08:46:20;99395.59;;;0.62;100.00
61119;BME280;51448;51.660;5.824;2023-03-08T08:48:48;99407.69;;;0.59;100.00
61119;BME280;51448;51.660;5.824;2023-03-08T08:51:15;99405.97;;;0.58;100.00
61119;BME280;51448;51.660;5.824;2023-03-08T08:53:43;99400.78;;;0.57;100.00
61119;BME280;51448;51.660;5.824;2023-03-08T08:56:22;99383.56;;;0.56;100.00
61119;BME280;51448;51.660;5.824;2023-03-08T08:58:59;99383.59;;;0.53;100.00
61119;BME280;51448;51.660;5.824;2023-03-08T09:01:31;99384.47;;;0.52;100.00
61119;BME280;51448;51.660;5.824;2023-03-08T09:03:59;99386.19;;;0.53;100.00
61119;BME280;51448;51.660;5.824;2023-03-08T09:06:28;99389.59;;;0.56;100.00
61119;BME280;51448;51.660;5.824;2023-03-08T09:08:57;99381.81;;;0.58;100.00
61119;BME280;51448;51.660;5.824;2023-03-08T09:11:26;99376.66;;;0.59;100.00
61119;BME280;51448;51.660;5.824;2023-03-08T09:13:54;99394.69;;;0.63;100.00
61119;BME280;51448;51.660;5.824;2023-03-08T09:16:29;99390.38;;;0.65;100.00
61119;BME280;51448;51.660;5.824;2023-03-08T09:19:00;99389.53;;;0.63;100.00
61119;BME280;51448;51.660;5.824;2023-03-08T09:21:31;99382.66;;;0.60;100.00
61119;BME280;51448;51.660;5.824;2023-03-08T09:24:01;99386.09;;;0.60;100.00
61119;BME280;51448;51.660;5.824;2023-03-08T09:26:32;99377.50;;;0.60;100.00
61119;BME280;51448;51.660;5.824;2023-03-08T09:29:00;99386.09;;;0.62;100.00
61119;BME280;51448;51.660;5.824;2023-03-08T09:31:33;99374.00;;;0.63;100.00
61119;BME280;51448;51.660;5.824;2023-03-08T09:34:03;99362.81;;;0.59;100.00
61119;BME280;51448;51.660;5.824;2023-03-08T09:36:36;99343.81;;;0.63;100.00
61119;BME280;51448;51.660;5.824;2023-03-08T09:39:10;99339.47;;;0.67;100.00
61119;BME280;51448;51.660;5.824;2023-03-08T09:47:48;99337.69;;;0.72;100.00
61119;BME280;51448;51.660;5.824;2023-03-08T09:50:20;99329.88;;;0.75;100.00
61119;BME280;51448;51.660;5.824;2023-03-08T09:55:37;99328.03;;;0.85;100.00
61119;BME280;51448;51.660;5.824;2023-03-08T09:58:48;99321.94;;;0.89;100.00
61119;BME280;51448;51.660;5.824;2023-03-08T10:01:37;99310.69;;;0.90;100.00
61119;BME280;51448;51.660;5.824;2023-03-08T10:13:45;99305.16;;;1.17;100.00
61119;BME280;51448;51.660;5.824;2023-03-08T10:16:28;99286.94;;;1.24;100.00
61119;BME280;51448;51.660;5.824;2023-03-08T10:19:06;99287.66;;;1.33;100.00
61119;BME280;51448;51.660;5.824;2023-03-08T10:21:42;99270.28;;;1.40;100.00
61119;BME280;51448;51.660;5.824;2023-03-08T10:27:20;99291.75;;;1.47;100.00
61119;BME280;51448;51.660;5.824;2023-03-08T10:29:51;99294.25;;;1.54;100.00
61119;BME280;51448;51.660;5.824;2023-03-08T10:32:22;99293.31;;;1.57;100.00
61119;BME280;51448;51.660;5.824;2023-03-08T10:34:59;99309.72;;;1.57;100.00
61119;BME280;51448;51.660;5.824;2023-03-08T10:37:32;99307.94;;;1.63;100.00
61119;BME280;51448;51.660;5.824;2023-03-08T10:40:06;99304.34;;;1.70;100.00
61119;BME280;51448;51.660;5.824;2023-03-08T10:42:56;99299.13;;;1.73;100.00
61119;BME280;51448;51.660;5.824;2023-03-08T10:45:28;99300.78;;;1.77;100.00
61119;BME280;51448;51.660;5.824;2023-03-08T10:48:01;99271.38;;;1.78;100.00
61119;BME280;51448;51.660;5.824;2023-03-08T10:50:36;99267.06;;;1.78;100.00
61119;BME280;51448;51.660;5.824;2023-03-08T10:53:08;99265.34;;;1.77;100.00
61119;BME280;51448;51.660;5.824;2023-03-08T10:55:46;99265.31;;;1.80;100.00
61119;BME280;51448;51.660;5.824;2023-03-08T10:58:28;99263.47;;;1.86;100.00
61119;BME280;51448;51.660;5.824;2023-03-08T11:01:03;99273.91;;;1.83;100.00
61119;BME280;51448;51.660;5.824;2023-03-08T11:03:33;99271.34;;;1.79;100.00
61119;BME280;51448;51.660;5.824;2023-03-08T11:06:12;99277.50;;;1.74;100.00
61119;BME280;51448;51.660;5.824;2023-03-08T11:08:56;99263.66;;;1.75;100.00
61119;BME280;51448;51.660;5.824;2023-03-08T11:11:26;99262.84;;;1.71;100.00
61119;BME280;51448;51.660;5.824;2023-03-08T11:13:54;99239.53;;;1.70;100.00
61119;BME280;51448;51.660;5.824;2023-03-08T11:28:16;99269.16;;;1.56;100.00
61119;BME280;51448;51.660;5.824;2023-03-08T11:31:11;99283.03;;;1.52;100.00
61119;BME280;51448;51.660;5.824;2023-03-08T11:36:30;99272.59;;;1.55;100.00
61119;BME280;51448;51.660;5.824;2023-03-08T11:39:24;99275.19;;;1.55;100.00
61119;BME280;51448;51.660;5.824;2023-03-08T11:44:39;99265.75;;;1.51;100.00
61119;BME280;51448;51.660;5.824;2023-03-08T11:50:22;99248.34;;;1.61;100.00
61119;BME280;51448;51.660;5.824;2023-03-08T11:53:24;99242.13;;;1.71;100.00
61119;BME280;51448;51.660;5.824;2023-03-08T12:01:43;99234.91;;;1.89;100.00
61119;BME280;51448;51.660;5.824;2023-03-08T12:04:24;99231.41;;;1.91;100.00
61119;BME280;51448;51.660;5.824;2023-03-08T12:07:01;99225.31;;;1.92;100.00
61119;BME280;51448;51.660;5.824;2023-03-08T12:10:00;99210.56;;;1.94;100.00
61119;BME280;51448;51.660;5.824;2023-03-08T12:12:43;99220.06;;;1.97;100.00
61119;BME280;51448;51.660;5.824;2023-03-08T12:15:26;99221.78;;;1.96;100.00
61119;BME280;51448;51.660;5.824;2023-03-08T12:18:09;99216.66;;;1.95;100.00
61119;BME280;51448;51.660;5.824;2023-03-08T12:20:42;99217.50;;;1.95;100.00
61119;BME280;51448;51.660;5.824;2023-03-08T12:26:24;99206.16;;;2.01;100.00
61119;BME280;51448;51.660;5.824;2023-03-08T12:29:04;99206.94;;;2.05;100.00
61119;BME280;51448;51.660;5.824;2023-03-08T12:31:44;99212.06;;;2.08;100.00
61119;BME280;51448;51.660;5.824;2023-03-08T12:34:28;99201.59;;;2.12;100.00
61119;BME280;51448;51.660;5.824;2023-03-08T12:37:03;99199.00;;;2.12;100.00
61119;BME280;51448;51.660;5.824;2023-03-08T12:39:33;99213.66;;;2.15;100.00
61119;BME280;51448;51.660;5.824;2023-03-08T12:44:37;99208.34;;;2.21;100.00
61119;BME280;51448;51.660;5.824;2023-03-08T12:49:42;99210.88;;;2.24;100.00
61119;BME280;51448;51.660;5.824;2023-03-08T12:57:32;99205.66;;;2.26;100.00
61119;BME280;51448;51.660;5.824;2023-03-08T13:00:31;99198.75;;;2.26;100.00
61119;BME280;51448;51.660;5.824;2023-03-08T13:03:24;99194.41;;;2.27;100.00
61119;BME280;51448;51.660;5.824;2023-03-08T13:05:55;99197.84;;;2.27;100.00
61119;BME280;51448;51.660;5.824;2023-03-08T13:08:29;99188.28;;;2.29;100.00
61119;BME280;51448;51.660;5.824;2023-03-08T13:11:09;99181.28;;;2.33;100.00
61119;BME280;51448;51.660;5.824;2023-03-08T13:13:54;99144.91;;;2.36;100.00
61119;BME280;51448;51.660;5.824;2023-03-08T13:16:33;99131.88;;;2.37;100.00
61119;BME280;51448;51.660;5.824;2023-03-08T13:19:16;99135.38;;;2.38;100.00
61119;BME280;51448;51.660;5.824;2023-03-08T13:21:54;99138.84;;;2.35;100.00
61119;BME280;51448;51.660;5.824;2023-03-08T13:24:37;99151.00;;;2.33;100.00
61119;BME280;51448;51.660;5.824;2023-03-08T13:27:19;99156.16;;;2.36;100.00
61119;BME280;51448;51.660;5.824;2023-03-08T13:30:13;99145.66;;;2.41;100.00
61119;BME280;51448;51.660;5.824;2023-03-08T13:32:55;99155.31;;;2.36;100.00
61119;BME280;51448;51.660;5.824;2023-03-08T13:35:23;99157.03;;;2.35;100.00
61119;BME280;51448;51.660;5.824;2023-03-08T13:37:56;99157.84;;;2.37;100.00
61119;BME280;51448;51.660;5.824;2023-03-08T13:40:28;99170.78;;;2.39;100.00
61119;BME280;51448;51.660;5.824;2023-03-08T13:42:59;99173.41;;;2.37;100.00
61119;BME280;51448;51.660;5.824;2023-03-08T13:45:30;99167.38;;;2.37;100.00
61119;BME280;51448;51.660;5.824;2023-03-08T13:47:59;99174.34;;;2.35;100.00
61119;BME280;51448;51.660;5.824;2023-03-08T13:50:35;99170.00;;;2.35;100.00
61119;BME280;51448;51.660;5.824;2023-03-08T13:53:20;99155.31;;;2.34;100.00
61119;BME280;51448;51.660;5.824;2023-03-08T13:55:53;99170.00;;;2.35;100.00
61119;BME280;51448;51.660;5.824;2023-03-08T13:58:36;99163.03;;;2.37;100.00
61119;BME280;51448;51.660;5.824;2023-03-08T14:01:16;99169.00;;;2.41;100.00
61119;BME280;51448;51.660;5.824;2023-03-08T14:03:45;99175.03;;;2.41;100.00
61119;BME280;51448;51.660;5.824;2023-03-08T14:06:28;99175.81;;;2.47;100.00
61119;BME280;51448;51.660;5.824;2023-03-08T14:09:04;99158.47;;;2.49;100.00
61119;BME280;51448;51.660;5.824;2023-03-08T14:11:33;99162.75;;;2.50;100.00
61119;BME280;51448;51.660;5.824;2023-03-08T14:14:13;99153.16;;;2.55;100.00
61119;BME280;51448;51.660;5.824;2023-03-08T14:17:18;99148.78;;;2.57;100.00
61119;BME280;51448;51.660;5.824;2023-03-08T14:19:54;99141.00;;;2.57;100.00
61119;BME280;51448;51.660;5.824;2023-03-08T14:22:28;99137.50;;;2.58;100.00
61119;BME280;51448;51.660;5.824;2023-03-08T14:25:20;99135.81;;;2.57;100.00
61119;BME280;51448;51.660;5.824;2023-03-08T14:27:47;99135.91;;;2.52;100.00
61119;BME280;51448;51.660;5.824;2023-03-08T14:30:27;99137.56;;;2.56;100.00
61119;BME280;51448;51.660;5.824;2023-03-08T14:33:05;99137.56;;;2.56;100.00